sensor_id;sensor_type;location;lat;lon;timestamp;pressure;altitude;pressure_sealevel;temperature;humidity
53635;BME280;39542;-34.932;138.594;2023-06-22T00:00:12;99827.71;;;14.83;63.07
53635;BME280;39542;-34.932;138.594;2023-06-22T00:00:46;99822.31;;;14.83;63.06
53635;BME280;39542;-34.932;138.594;2023-06-22T00:01:21;99822.47;;;14.84;63.07
53635;BME280;39542;-34.932;138.594;2023-06-22T00:01:55;99818.63;;;14.82;63.09
53635;BME280;39542;-34.932;138.594;2023-06-22T00:02:29;99815.88;;;14.82;63.05
53635;BME280;39542;-34.932;138.594;2023-06-22T00:03:04;99817.28;;;14.83;63.09
53635;BME280;39542;-34.932;138.594;2023-06-22T00:03:38;99819.53;;;14.81;63.08
53635;BME280;39542;-34.932;138.594;2023-06-22T00:04:12;99816.89;;;14.82;63.07
53635;BME280;39542;-34.932;138.594;2023-06-22T00:04:47;99815.93;;;14.81;63.03
53635;BME280;39542;-34.932;138.594;2023-06-22T00:05:21;99814.66;;;14.80;63.08
53635;BME280;39542;-34.932;138.594;2023-06-22T00:05:55;99816.26;;;14.79;63.12
53635;BME280;39542;-34.932;138.594;2023-06-22T00:06:30;99810.34;;;14.80;63.05
53635;BME280;39542;-34.932;138.594;2023-06-22T00:07:04;99814.30;;;14.80;63.08
53635;BME280;39542;-34.932;138.594;2023-06-22T00:07:38;99807.60;;;14.80;63.06
53635;BME280;39542;-34.932;138.594;2023-06-22T00:08:13;99805.26;;;14.79;63.08
53635;BME280;39542;-34.932;138.594;2023-06-22T00:08:48;99809.22;;;14.78;63.12
53635;BME280;39542;-34.932;138.594;2023-06-22T00:09:22;99806.39;;;14.78;63.10
53635;BME280;39542;-34.932;138.594;2023-06-22T00:09:57;99807.12;;;14.78;63.12
53635;BME280;39542;-34.932;138.594;2023-06-22T00:10:31;99810.05;;;14.80;63.05
53635;BME280;39542;-34.932;138.594;2023-06-22T00:11:05;99809.89;;;14.80;63.08
53635;BME280;39542;-34.932;138.594;2023-06-22T00:11:39;99810.53;;;14.80;63.07
53635;BME280;39542;-34.932;138.594;2023-06-22T00:12:14;99814.79;;;14.78;63.09
53635;BME280;39542;-34.932;138.594;2023-06-22T00:12:47;99813.63;;;14.78;63.04
53635;BME280;39542;-34.932;138.594;2023-06-22T00:13:22;99814.97;;;14.78;63.10
53635;BME280;39542;-34.932;138.594;2023-06-22T00:13:56;99814.56;;;14.78;63.08
53635;BME280;39542;-34.932;138.594;2023-06-22T00:14:31;99815.68;;;14.76;63.13
53635;BME280;39542;-34.932;138.594;2023-06-22T00:15:06;99813.52;;;14.77;63.13
53635;BME280;39542;-34.932;138.594;2023-06-22T00:15:42;99816.37;;;14.77;63.17
53635;BME280;39542;-34.932;138.594;2023-06-22T00:16:16;99813.15;;;14.76;63.12
53635;BME280;39542;-34.932;138.594;2023-06-22T00:16:51;99813.92;;;14.79;63.09
53635;BME280;39542;-34.932;138.594;2023-06-22T00:17:25;99816.87;;;14.77;63.12
53635;BME280;39542;-34.932;138.594;2023-06-22T00:17:59;99820.26;;;14.77;63.16
53635;BME280;39542;-34.932;138.594;2023-06-22T00:18:34;99827.08;;;14.77;63.13
53635;BME280;39542;-34.932;138.594;2023-06-22T00:19:08;99823.98;;;14.76;63.18
53635;BME280;39542;-34.932;138.594;2023-06-22T00:19:43;99823.63;;;14.76;63.16
53635;BME280;39542;-34.932;138.594;2023-06-22T00:20:17;99822.85;;;14.77;63.18
53635;BME280;39542;-34.932;138.594;2023-06-22T00:20:51;99822.15;;;14.77;63.18
53635;BME280;39542;-34.932;138.594;2023-06-22T00:21:26;99821.44;;;14.77;63.14
53635;BME280;39542;-34.932;138.594;2023-06-22T00:22:00;99819.29;;;14.77;63.13
53635;BME280;39542;-34.932;138.594;2023-06-22T00:22:34;99816.25;;;14.77;63.18
53635;BME280;39542;-34.932;138.594;2023-06-22T00:23:09;99815.03;;;14.77;63.21
53635;BME280;39542;-34.932;138.594;2023-06-22T00:23:43;99815.01;;;14.77;63.23
53635;BME280;39542;-34.932;138.594;2023-06-22T00:24:18;99814.96;;;14.78;63.15
53635;BME280;39542;-34.932;138.594;2023-06-22T00:24:52;99813.05;;;14.75;63.19
53635;BME280;39542;-34.932;138.594;2023-06-22T00:25:27;99812.77;;;14.76;63.18
53635;BME280;39542;-34.932;138.594;2023-06-22T00:26:02;99807.19;;;14.75;63.21
53635;BME280;39542;-34.932;138.594;2023-06-22T00:26:36;99807.03;;;14.74;63.19
53635;BME280;39542;-34.932;138.594;2023-06-22T00:27:10;99805.97;;;14.75;63.23
53635;BME280;39542;-34.932;138.594;2023-06-22T00:27:45;99803.10;;;14.73;63.17
53635;BME280;39542;-34.932;138.594;2023-06-22T00:28:19;99799.97;;;14.72;63.22
53635;BME280;39542;-34.932;138.594;2023-06-22T00:28:53;99799.87;;;14.73;63.22
53635;BME280;39542;-34.932;138.594;2023-06-22T00:29:28;99799.11;;;14.73;63.27
53635;BME280;39542;-34.932;138.594;2023-06-22T00:30:03;99796.76;;;14.74;63.17
53635;BME280;39542;-34.932;138.594;2023-06-22T00:30:37;99795.84;;;14.74;63.21
53635;BME280;39542;-34.932;138.594;2023-06-22T00:31:11;99786.71;;;14.74;63.20
53635;BME280;39542;-34.932;138.594;2023-06-22T00:31:46;99788.29;;;14.75;63.23
53635;BME280;39542;-34.932;138.594;2023-06-22T00:32:20;99788.37;;;14.75;63.19
53635;BME280;39542;-34.932;138.594;2023-06-22T00:32:54;99785.57;;;14.75;63.18
53635;BME280;39542;-34.932;138.594;2023-06-22T00:33:28;99785.19;;;14.74;63.18
53635;BME280;39542;-34.932;138.594;2023-06-22T00:34:03;99782.83;;;14.75;63.22
53635;BME280;39542;-34.932;138.594;2023-06-22T00:34:37;99781.82;;;14.74;63.20
53635;BME280;39542;-34.932;138.594;2023-06-22T00:35:12;99776.69;;;14.75;63.17
53635;BME280;39542;-34.932;138.594;2023-06-22T00:35:46;99777.37;;;14.75;63.18
53635;BME280;39542;-34.932;138.594;2023-06-22T00:36:21;99775.12;;;14.73;63.19
53635;BME280;39542;-34.932;138.594;2023-06-22T00:36:55;99778.28;;;14.73;63.21
53635;BME280;39542;-34.932;138.594;2023-06-22T00:37:29;99775.54;;;14.73;63.18
53635;BME280;39542;-34.932;138.594;2023-06-22T00:38:04;99777.48;;;14.74;63.17
53635;BME280;39542;-34.932;138.594;2023-06-22T00:38:38;99775.57;;;14.75;63.22
53635;BME280;39542;-34.932;138.594;2023-06-22T00:39:12;99777.14;;;14.72;63.21
53635;BME280;39542;-34.932;138.594;2023-06-22T00:39:46;99777.36;;;14.74;63.19
53635;BME280;39542;-34.932;138.594;2023-06-22T00:40:20;99774.49;;;14.74;63.17
53635;BME280;39542;-34.932;138.594;2023-06-22T00:40:54;99771.05;;;14.75;63.17
53635;BME280;39542;-34.932;138.594;2023-06-22T00:41:29;99768.67;;;14.72;63.23
53635;BME280;39542;-34.932;138.594;2023-06-22T00:42:03;99767.37;;;14.71;63.21
53635;BME280;39542;-34.932;138.594;2023-06-22T00:42:37;99768.16;;;14.70;63.15
53635;BME280;39542;-34.932;138.594;2023-06-22T00:43:12;99765.54;;;14.71;63.22
53635;BME280;39542;-34.932;138.594;2023-06-22T00:43:47;99766.11;;;14.72;63.17
53635;BME280;39542;-34.932;138.594;2023-06-22T00:44:21;99764.99;;;14.70;63.21
53635;BME280;39542;-34.932;138.594;2023-06-22T00:44:56;99763.00;;;14.71;63.18
53635;BME280;39542;-34.932;138.594;2023-06-22T00:45:30;99759.87;;;14.69;63.21
53635;BME280;39542;-34.932;138.594;2023-06-22T00:46:05;99760.07;;;14.68;63.21
53635;BME280;39542;-34.932;138.594;2023-06-22T00:46:39;99760.33;;;14.68;63.21
53635;BME280;39542;-34.932;138.594;2023-06-22T00:47:15;99762.07;;;14.69;63.19
53635;BME280;39542;-34.932;138.594;2023-06-22T00:47:52;99760.98;;;14.69;63.21
53635;BME280;39542;-34.932;138.594;2023-06-22T00:48:26;99760.94;;;14.67;63.25
53635;BME280;39542;-34.932;138.594;2023-06-22T00:49:01;99764.80;;;14.65;63.28
53635;BME280;39542;-34.932;138.594;2023-06-22T00:49:35;99763.04;;;14.66;63.29
53635;BME280;39542;-34.932;138.594;2023-06-22T00:50:10;99763.13;;;14.65;63.24
53635;BME280;39542;-34.932;138.594;2023-06-22T00:50:51;99761.67;;;14.64;63.30
53635;BME280;39542;-34.932;138.594;2023-06-22T00:51:26;99756.45;;;14.64;63.25
53635;BME280;39542;-34.932;138.594;2023-06-22T00:52:00;99755.97;;;14.66;63.24
53635;BME280;39542;-34.932;138.594;2023-06-22T00:52:35;99750.96;;;14.65;63.22
53635;BME280;39542;-34.932;138.594;2023-06-22T00:53:10;99751.70;;;14.66;63.23
53635;BME280;39542;-34.932;138.594;2023-06-22T00:53:45;99751.05;;;14.66;63.28
53635;BME280;39542;-34.932;138.594;2023-06-22T00:54:19;99755.76;;;14.65;63.26
53635;BME280;39542;-34.932;138.594;2023-06-22T00:54:54;99756.75;;;14.66;63.32
53635;BME280;39542;-34.932;138.594;2023-06-22T00:55:29;99756.22;;;14.67;63.24
53635;BME280;39542;-34.932;138.594;2023-06-22T00:56:03;99755.56;;;14.65;63.27
53635;BME280;39542;-34.932;138.594;2023-06-22T00:56:38;99756.63;;;14.66;63.27
53635;BME280;39542;-34.932;138.594;2023-06-22T00:57:13;99754.62;;;14.65;63.26
53635;BME280;39542;-34.932;138.594;2023-06-22T00:57:48;99753.81;;;14.63;63.32
53635;BME280;39542;-34.932;138.594;2023-06-22T00:58:23;99752.24;;;14.64;63.29
53635;BME280;39542;-34.932;138.594;2023-06-22T00:58:59;99752.57;;;14.64;63.22
53635;BME280;39542;-34.932;138.594;2023-06-22T00:59:34;99750.86;;;14.64;63.30
53635;BME280;39542;-34.932;138.594;2023-06-22T01:00:10;99755.23;;;14.65;63.24
53635;BME280;39542;-34.932;138.594;2023-06-22T01:00:44;99751.98;;;14.66;63.24
53635;BME280;39542;-34.932;138.594;2023-06-22T01:01:19;99751.14;;;14.66;63.22
53635;BME280;39542;-34.932;138.594;2023-06-22T01:01:53;99750.79;;;14.67;63.23
53635;BME280;39542;-34.932;138.594;2023-06-22T01:02:28;99751.66;;;14.67;63.22
53635;BME280;39542;-34.932;138.594;2023-06-22T01:03:03;99747.73;;;14.66;63.23
53635;BME280;39542;-34.932;138.594;2023-06-22T01:03:38;99746.83;;;14.64;63.28
53635;BME280;39542;-34.932;138.594;2023-06-22T01:04:12;99744.47;;;14.63;63.23
53635;BME280;39542;-34.932;138.594;2023-06-22T01:04:47;99739.89;;;14.64;63.26
53635;BME280;39542;-34.932;138.594;2023-06-22T01:05:22;99743.02;;;14.62;63.25
53635;BME280;39542;-34.932;138.594;2023-06-22T01:05:59;99740.91;;;14.63;63.29
53635;BME280;39542;-34.932;138.594;2023-06-22T01:06:43;99739.48;;;14.61;63.28
53635;BME280;39542;-34.932;138.594;2023-06-22T01:07:25;99738.92;;;14.64;63.22
53635;BME280;39542;-34.932;138.594;2023-06-22T01:08:08;99742.58;;;14.66;63.18
53635;BME280;39542;-34.932;138.594;2023-06-22T01:08:49;99741.89;;;14.63;63.27
53635;BME280;39542;-34.932;138.594;2023-06-22T01:09:30;99740.23;;;14.61;63.26
53635;BME280;39542;-34.932;138.594;2023-06-22T01:10:10;99741.19;;;14.63;63.26
53635;BME280;39542;-34.932;138.594;2023-06-22T01:10:53;99736.50;;;14.61;63.28
53635;BME280;39542;-34.932;138.594;2023-06-22T01:11:33;99736.74;;;14.62;63.26
53635;BME280;39542;-34.932;138.594;2023-06-22T01:12:10;99736.68;;;14.62;63.23
53635;BME280;39542;-34.932;138.594;2023-06-22T01:12:48;99735.13;;;14.61;63.24
53635;BME280;39542;-34.932;138.594;2023-06-22T01:13:29;99730.60;;;14.61;63.26
53635;BME280;39542;-34.932;138.594;2023-06-22T01:14:15;99727.48;;;14.61;63.36
53635;BME280;39542;-34.932;138.594;2023-06-22T01:14:54;99726.26;;;14.59;63.29
53635;BME280;39542;-34.932;138.594;2023-06-22T01:15:35;99724.68;;;14.61;63.31
53635;BME280;39542;-34.932;138.594;2023-06-22T01:16:16;99721.03;;;14.60;63.29
53635;BME280;39542;-34.932;138.594;2023-06-22T01:16:53;99720.15;;;14.60;63.26
53635;BME280;39542;-34.932;138.594;2023-06-22T01:17:28;99719.18;;;14.60;63.24
53635;BME280;39542;-34.932;138.594;2023-06-22T01:18:05;99719.59;;;14.60;63.26
53635;BME280;39542;-34.932;138.594;2023-06-22T01:18:43;99716.31;;;14.61;63.23
53635;BME280;39542;-34.932;138.594;2023-06-22T01:19:35;99715.73;;;14.57;63.28
53635;BME280;39542;-34.932;138.594;2023-06-22T01:20:11;99713.80;;;14.56;63.32
53635;BME280;39542;-34.932;138.594;2023-06-22T01:20:47;99714.75;;;14.56;63.32
53635;BME280;39542;-34.932;138.594;2023-06-22T01:21:23;99711.23;;;14.55;63.32
53635;BME280;39542;-34.932;138.594;2023-06-22T01:21:59;99711.82;;;14.56;63.37
53635;BME280;39542;-34.932;138.594;2023-06-22T01:22:43;99708.64;;;14.55;63.32
53635;BME280;39542;-34.932;138.594;2023-06-22T01:23:29;99705.94;;;14.57;63.28
53635;BME280;39542;-34.932;138.594;2023-06-22T01:24:22;99711.09;;;14.57;63.26
53635;BME280;39542;-34.932;138.594;2023-06-22T01:25:05;99706.58;;;14.55;63.31
53635;BME280;39542;-34.932;138.594;2023-06-22T01:25:47;99702.31;;;14.58;63.31
53635;BME280;39542;-34.932;138.594;2023-06-22T01:26:32;99702.08;;;14.59;63.23
53635;BME280;39542;-34.932;138.594;2023-06-22T01:27:17;99698.02;;;14.58;63.33
53635;BME280;39542;-34.932;138.594;2023-06-22T01:28:09;99696.06;;;14.59;63.38
53635;BME280;39542;-34.932;138.594;2023-06-22T01:28:47;99693.28;;;14.57;63.33
53635;BME280;39542;-34.932;138.594;2023-06-22T01:29:24;99691.39;;;14.58;63.32
53635;BME280;39542;-34.932;138.594;2023-06-22T01:30:00;99690.39;;;14.60;63.29
53635;BME280;39542;-34.932;138.594;2023-06-22T01:30:36;99687.45;;;14.61;63.34
53635;BME280;39542;-34.932;138.594;2023-06-22T01:31:13;99685.32;;;14.59;63.32
53635;BME280;39542;-34.932;138.594;2023-06-22T01:31:49;99684.63;;;14.59;63.31
53635;BME280;39542;-34.932;138.594;2023-06-22T01:32:24;99684.91;;;14.58;63.25
53635;BME280;39542;-34.932;138.594;2023-06-22T01:33:00;99682.85;;;14.59;63.25
53635;BME280;39542;-34.932;138.594;2023-06-22T01:33:37;99679.77;;;14.57;63.28
53635;BME280;39542;-34.932;138.594;2023-06-22T01:34:14;99678.34;;;14.57;63.25
53635;BME280;39542;-34.932;138.594;2023-06-22T01:34:50;99676.98;;;14.57;63.27
53635;BME280;39542;-34.932;138.594;2023-06-22T01:35:25;99672.98;;;14.57;63.24
53635;BME280;39542;-34.932;138.594;2023-06-22T01:36:01;99672.61;;;14.56;63.26
53635;BME280;39542;-34.932;138.594;2023-06-22T01:36:36;99670.25;;;14.58;63.29
53635;BME280;39542;-34.932;138.594;2023-06-22T01:37:12;99668.26;;;14.57;63.27
53635;BME280;39542;-34.932;138.594;2023-06-22T01:37:47;99667.50;;;14.57;63.30
53635;BME280;39542;-34.932;138.594;2023-06-22T01:38:22;99664.34;;;14.56;63.32
53635;BME280;39542;-34.932;138.594;2023-06-22T01:38:58;99664.06;;;14.56;63.31
53635;BME280;39542;-34.932;138.594;2023-06-22T01:39:34;99661.34;;;14.56;63.29
53635;BME280;39542;-34.932;138.594;2023-06-22T01:40:12;99655.16;;;14.55;63.32
53635;BME280;39542;-34.932;138.594;2023-06-22T01:40:48;99654.35;;;14.56;63.29
53635;BME280;39542;-34.932;138.594;2023-06-22T01:41:25;99647.74;;;14.56;63.32
53635;BME280;39542;-34.932;138.594;2023-06-22T01:41:59;99647.75;;;14.57;63.28
53635;BME280;39542;-34.932;138.594;2023-06-22T01:42:34;99643.18;;;14.57;63.31
53635;BME280;39542;-34.932;138.594;2023-06-22T01:43:09;99639.71;;;14.56;63.35
53635;BME280;39542;-34.932;138.594;2023-06-22T01:43:44;99640.62;;;14.57;63.29
53635;BME280;39542;-34.932;138.594;2023-06-22T01:44:19;99635.26;;;14.57;63.32
53635;BME280;39542;-34.932;138.594;2023-06-22T01:44:54;99634.50;;;14.57;63.33
53635;BME280;39542;-34.932;138.594;2023-06-22T01:45:29;99634.01;;;14.58;63.39
53635;BME280;39542;-34.932;138.594;2023-06-22T01:46:04;99630.91;;;14.61;63.28
53635;BME280;39542;-34.932;138.594;2023-06-22T01:46:40;99625.11;;;14.61;63.22
53635;BME280;39542;-34.932;138.594;2023-06-22T01:47:14;99626.22;;;14.61;63.31
53635;BME280;39542;-34.932;138.594;2023-06-22T01:47:49;99625.67;;;14.62;63.24
53635;BME280;39542;-34.932;138.594;2023-06-22T01:48:24;99625.04;;;14.62;63.22
53635;BME280;39542;-34.932;138.594;2023-06-22T01:48:59;99621.95;;;14.60;63.23
53635;BME280;39542;-34.932;138.594;2023-06-22T01:49:33;99620.23;;;14.61;63.24
53635;BME280;39542;-34.932;138.594;2023-06-22T01:50:09;99618.06;;;14.61;63.27
53635;BME280;39542;-34.932;138.594;2023-06-22T01:50:43;99617.12;;;14.61;63.23
53635;BME280;39542;-34.932;138.594;2023-06-22T01:51:18;99614.65;;;14.62;63.19
53635;BME280;39542;-34.932;138.594;2023-06-22T01:51:55;99615.15;;;14.60;63.26
53635;BME280;39542;-34.932;138.594;2023-06-22T01:52:29;99612.89;;;14.60;63.23
53635;BME280;39542;-34.932;138.594;2023-06-22T01:53:04;99608.52;;;14.61;63.23
53635;BME280;39542;-34.932;138.594;2023-06-22T01:53:38;99609.17;;;14.60;63.31
53635;BME280;39542;-34.932;138.594;2023-06-22T01:54:12;99606.54;;;14.60;63.24
53635;BME280;39542;-34.932;138.594;2023-06-22T01:54:47;99607.55;;;14.59;63.25
53635;BME280;39542;-34.932;138.594;2023-06-22T01:55:22;99604.47;;;14.60;63.23
53635;BME280;39542;-34.932;138.594;2023-06-22T01:55:58;99600.80;;;14.60;63.24
53635;BME280;39542;-34.932;138.594;2023-06-22T01:56:34;99600.99;;;14.60;63.24
53635;BME280;39542;-34.932;138.594;2023-06-22T01:57:08;99599.02;;;14.59;63.31
53635;BME280;39542;-34.932;138.594;2023-06-22T01:57:42;99595.05;;;14.59;63.23
53635;BME280;39542;-34.932;138.594;2023-06-22T01:58:17;99599.25;;;14.60;63.20
53635;BME280;39542;-34.932;138.594;2023-06-22T01:59:01;99594.70;;;14.58;63.23
53635;BME280;39542;-34.932;138.594;2023-06-22T01:59:47;99592.15;;;14.59;63.18
53635;BME280;39542;-34.932;138.594;2023-06-22T02:00:24;99587.53;;;14.59;63.18
53635;BME280;39542;-34.932;138.594;2023-06-22T02:01:03;99586.25;;;14.60;63.20
53635;BME280;39542;-34.932;138.594;2023-06-22T02:01:47;99582.52;;;14.63;63.18
53635;BME280;39542;-34.932;138.594;2023-06-22T02:02:24;99581.60;;;14.62;63.18
53635;BME280;39542;-34.932;138.594;2023-06-22T02:03:05;99583.12;;;14.61;63.18
53635;BME280;39542;-34.932;138.594;2023-06-22T02:04:37;99579.22;;;14.60;63.23
53635;BME280;39542;-34.932;138.594;2023-06-22T02:05:18;99571.05;;;14.61;63.18
53635;BME280;39542;-34.932;138.594;2023-06-22T02:05:58;99576.94;;;14.63;63.32
53635;BME280;39542;-34.932;138.594;2023-06-22T02:06:39;99572.62;;;14.62;63.20
53635;BME280;39542;-34.932;138.594;2023-06-22T02:07:17;99575.06;;;14.61;63.20
53635;BME280;39542;-34.932;138.594;2023-06-22T02:08:00;99568.26;;;14.61;63.29
53635;BME280;39542;-34.932;138.594;2023-06-22T02:08:46;99567.81;;;14.64;63.22
53635;BME280;39542;-34.932;138.594;2023-06-22T02:09:23;99562.78;;;14.65;63.15
53635;BME280;39542;-34.932;138.594;2023-06-22T02:10:00;99554.61;;;14.66;63.14
53635;BME280;39542;-34.932;138.594;2023-06-22T02:10:37;99556.53;;;14.66;63.13
53635;BME280;39542;-34.932;138.594;2023-06-22T02:11:13;99552.44;;;14.67;63.14
53635;BME280;39542;-34.932;138.594;2023-06-22T02:11:50;99549.83;;;14.66;63.13
53635;BME280;39542;-34.932;138.594;2023-06-22T02:12:26;99546.85;;;14.67;63.13
53635;BME280;39542;-34.932;138.594;2023-06-22T02:13:03;99544.51;;;14.63;63.17
53635;BME280;39542;-34.932;138.594;2023-06-22T02:13:39;99543.20;;;14.63;63.20
53635;BME280;39542;-34.932;138.594;2023-06-22T02:14:13;99541.79;;;14.64;63.21
53635;BME280;39542;-34.932;138.594;2023-06-22T02:14:49;99540.53;;;14.63;63.22
53635;BME280;39542;-34.932;138.594;2023-06-22T02:15:24;99534.91;;;14.62;63.23
53635;BME280;39542;-34.932;138.594;2023-06-22T02:15:59;99531.60;;;14.63;63.19
53635;BME280;39542;-34.932;138.594;2023-06-22T02:16:35;99528.81;;;14.61;63.19
53635;BME280;39542;-34.932;138.594;2023-06-22T02:17:10;99526.23;;;14.60;63.20
53635;BME280;39542;-34.932;138.594;2023-06-22T02:17:44;99521.52;;;14.61;63.24
53635;BME280;39542;-34.932;138.594;2023-06-22T02:18:19;99522.17;;;14.65;63.24
53635;BME280;39542;-34.932;138.594;2023-06-22T02:18:53;99522.22;;;14.64;63.15
53635;BME280;39542;-34.932;138.594;2023-06-22T02:19:28;99518.82;;;14.66;63.14
53635;BME280;39542;-34.932;138.594;2023-06-22T02:20:04;99514.64;;;14.66;63.26
53635;BME280;39542;-34.932;138.594;2023-06-22T02:20:39;99512.88;;;14.65;63.19
53635;BME280;39542;-34.932;138.594;2023-06-22T02:21:13;99508.31;;;14.66;63.18
53635;BME280;39542;-34.932;138.594;2023-06-22T02:21:48;99508.81;;;14.65;63.18
53635;BME280;39542;-34.932;138.594;2023-06-22T02:22:22;99506.91;;;14.64;63.21
53635;BME280;39542;-34.932;138.594;2023-06-22T02:22:57;99508.07;;;14.64;63.19
53635;BME280;39542;-34.932;138.594;2023-06-22T02:23:31;99506.38;;;14.64;63.15
53635;BME280;39542;-34.932;138.594;2023-06-22T02:24:06;99504.97;;;14.61;63.17
53635;BME280;39542;-34.932;138.594;2023-06-22T02:24:40;99502.94;;;14.63;63.21
53635;BME280;39542;-34.932;138.594;2023-06-22T02:25:15;99501.33;;;14.63;63.23
53635;BME280;39542;-34.932;138.594;2023-06-22T02:25:49;99497.83;;;14.63;63.19
53635;BME280;39542;-34.932;138.594;2023-06-22T02:26:25;99500.03;;;14.64;63.19
53635;BME280;39542;-34.932;138.594;2023-06-22T02:27:01;99496.74;;;14.63;63.15
53635;BME280;39542;-34.932;138.594;2023-06-22T02:27:36;99493.65;;;14.61;63.15
53635;BME280;39542;-34.932;138.594;2023-06-22T02:28:10;99499.07;;;14.62;63.21
53635;BME280;39542;-34.932;138.594;2023-06-22T02:28:45;99491.86;;;14.63;63.15
53635;BME280;39542;-34.932;138.594;2023-06-22T02:29:19;99492.43;;;14.65;63.16
53635;BME280;39542;-34.932;138.594;2023-06-22T02:29:54;99492.83;;;14.66;63.21
53635;BME280;39542;-34.932;138.594;2023-06-22T02:30:28;99491.48;;;14.66;63.17
53635;BME280;39542;-34.932;138.594;2023-06-22T02:31:02;99491.23;;;14.67;63.14
53635;BME280;39542;-34.932;138.594;2023-06-22T02:31:37;99487.99;;;14.67;63.13
53635;BME280;39542;-34.932;138.594;2023-06-22T02:32:10;99486.44;;;14.67;63.10
53635;BME280;39542;-34.932;138.594;2023-06-22T02:32:45;99487.23;;;14.64;63.22
53635;BME280;39542;-34.932;138.594;2023-06-22T02:33:19;99485.90;;;14.62;63.27
53635;BME280;39542;-34.932;138.594;2023-06-22T02:33:53;99483.02;;;14.61;63.16
53635;BME280;39542;-34.932;138.594;2023-06-22T02:34:28;99482.98;;;14.59;63.19
53635;BME280;39542;-34.932;138.594;2023-06-22T02:35:02;99483.06;;;14.59;63.20
53635;BME280;39542;-34.932;138.594;2023-06-22T02:35:36;99479.36;;;14.57;63.27
53635;BME280;39542;-34.932;138.594;2023-06-22T02:36:11;99478.34;;;14.60;63.22
53635;BME280;39542;-34.932;138.594;2023-06-22T02:36:45;99473.76;;;14.61;63.20
53635;BME280;39542;-34.932;138.594;2023-06-22T02:37:19;99471.96;;;14.62;63.17
53635;BME280;39542;-34.932;138.594;2023-06-22T02:37:54;99469.92;;;14.62;63.19
53635;BME280;39542;-34.932;138.594;2023-06-22T02:38:28;99469.01;;;14.64;63.27
53635;BME280;39542;-34.932;138.594;2023-06-22T02:39:02;99463.03;;;14.64;63.17
53635;BME280;39542;-34.932;138.594;2023-06-22T02:39:37;99465.87;;;14.64;63.20
53635;BME280;39542;-34.932;138.594;2023-06-22T02:40:12;99464.03;;;14.66;63.28
53635;BME280;39542;-34.932;138.594;2023-06-22T02:40:46;99461.93;;;14.66;63.17
53635;BME280;39542;-34.932;138.594;2023-06-22T02:41:21;99458.24;;;14.68;63.24
53635;BME280;39542;-34.932;138.594;2023-06-22T02:41:56;99454.95;;;14.68;63.14
53635;BME280;39542;-34.932;138.594;2023-06-22T02:42:30;99458.78;;;14.66;63.11
53635;BME280;39542;-34.932;138.594;2023-06-22T02:43:05;99458.06;;;14.65;63.17
53635;BME280;39542;-34.932;138.594;2023-06-22T02:43:39;99454.06;;;14.64;63.16
53635;BME280;39542;-34.932;138.594;2023-06-22T02:44:13;99458.35;;;14.65;63.11
53635;BME280;39542;-34.932;138.594;2023-06-22T02:44:47;99457.37;;;14.64;63.07
53635;BME280;39542;-34.932;138.594;2023-06-22T02:45:22;99454.52;;;14.63;63.14
53635;BME280;39542;-34.932;138.594;2023-06-22T02:45:57;99453.25;;;14.61;63.22
53635;BME280;39542;-34.932;138.594;2023-06-22T02:46:31;99452.49;;;14.60;63.22
53635;BME280;39542;-34.932;138.594;2023-06-22T02:47:07;99447.25;;;14.60;63.19
53635;BME280;39542;-34.932;138.594;2023-06-22T02:47:41;99445.09;;;14.61;63.22
53635;BME280;39542;-34.932;138.594;2023-06-22T02:48:15;99446.37;;;14.62;63.18
53635;BME280;39542;-34.932;138.594;2023-06-22T02:48:49;99448.33;;;14.62;63.14
53635;BME280;39542;-34.932;138.594;2023-06-22T02:49:24;99444.33;;;14.62;63.17
53635;BME280;39542;-34.932;138.594;2023-06-22T02:49:58;99444.89;;;14.60;63.18
53635;BME280;39542;-34.932;138.594;2023-06-22T02:50:33;99447.74;;;14.60;63.15
53635;BME280;39542;-34.932;138.594;2023-06-22T02:51:08;99451.62;;;14.59;63.18
53635;BME280;39542;-34.932;138.594;2023-06-22T02:51:45;99450.80;;;14.63;63.27
53635;BME280;39542;-34.932;138.594;2023-06-22T02:52:20;99451.94;;;14.62;63.15
53635;BME280;39542;-34.932;138.594;2023-06-22T02:52:55;99444.97;;;14.60;63.15
53635;BME280;39542;-34.932;138.594;2023-06-22T02:53:29;99450.51;;;14.58;63.17
53635;BME280;39542;-34.932;138.594;2023-06-22T02:54:03;99451.55;;;14.58;63.27
53635;BME280;39542;-34.932;138.594;2023-06-22T02:54:37;99446.81;;;14.59;63.22
53635;BME280;39542;-34.932;138.594;2023-06-22T02:55:12;99445.07;;;14.58;63.14
53635;BME280;39542;-34.932;138.594;2023-06-22T02:55:46;99443.25;;;14.58;63.19
53635;BME280;39542;-34.932;138.594;2023-06-22T02:56:21;99443.42;;;14.57;63.26
53635;BME280;39542;-34.932;138.594;2023-06-22T02:56:55;99440.73;;;14.57;63.19
53635;BME280;39542;-34.932;138.594;2023-06-22T02:57:30;99439.48;;;14.58;63.16
53635;BME280;39542;-34.932;138.594;2023-06-22T02:58:04;99437.54;;;14.60;63.17
53635;BME280;39542;-34.932;138.594;2023-06-22T02:58:38;99435.85;;;14.59;63.17
53635;BME280;39542;-34.932;138.594;2023-06-22T02:59:13;99439.23;;;14.59;63.22
53635;BME280;39542;-34.932;138.594;2023-06-22T02:59:47;99432.23;;;14.58;63.20
53635;BME280;39542;-34.932;138.594;2023-06-22T03:00:21;99433.27;;;14.57;63.16
53635;BME280;39542;-34.932;138.594;2023-06-22T03:00:56;99430.30;;;14.58;63.22
53635;BME280;39542;-34.932;138.594;2023-06-22T03:01:30;99424.32;;;14.58;63.28
53635;BME280;39542;-34.932;138.594;2023-06-22T03:02:05;99427.08;;;14.59;63.18
53635;BME280;39542;-34.932;138.594;2023-06-22T03:02:39;99425.00;;;14.59;63.26
53635;BME280;39542;-34.932;138.594;2023-06-22T03:03:14;99425.58;;;14.60;63.24